Date,TemperatureHighF,TemperatureAvgF,TemperatureLowF,DewpointHighF,DewpointAvgF,DewpointLowF,HumidityHigh,HumidityAvg,HumidityLow,PressureMaxIn,PressureMinIn,WindSpeedMaxMPH,WindSpeedAvgMPH,GustSpeedMaxMPH,PrecipitationSumIn
2014-1-1,38.9,31.6,23.1,33.7,21.7,11.9,84,67,49,30.41,30.20,11,3,17,0.00
2014-1-2,41.0,33.5,24.9,38.3,31.5,23.7,96,92,84,30.20,29.58,17,13,24,0.00
2014-1-3,24.8,16.5,9.5,23.6,9.6,-0.6,95,75,55,30.46,29.55,17,11,21,0.00
2014-1-4,31.2,19.1,6.9,19.9,8.5,-1.0,82,64,39,30.53,30.29,5,2,7,0.00
2014-1-5,49.7,36.7,23.5,48.9,34.3,18.8,97,91,80,30.30,29.75,9,3,14,0.02
2014-1-6,53.4,42.5,18.0,52.8,37.8,2.9,98,84,51,29.78,29.43,14,6,19,0.33
2014-1-7,17.3,8.3,4.1,2.8,-6.0,-12.2,59,51,45,30.39,29.79,15,8,25,0.00
2014-1-8,22.7,15.7,9.2,8.9,1.9,-2.8,62,54,42,30.57,30.40,8,4,10,0.00
2014-1-9,33.1,25.9,20.8,27.3,14.9,7.9,79,63,50,30.64,30.49,7,3,11,0.00
2014-1-10,39.8,34.5,26.7,39.0,32.1,21.2,97,91,78,30.56,30.18,3,1,5,0.28
2014-1-11,56.0,49.9,39.9,55.7,49.4,39.1,99,98,97,30.17,29.38,8,4,12,0.45
2014-1-12,52.2,42.9,34.3,51.9,34.2,28.6,99,72,57,30.09,29.41,13,6,23,0.02
2014-1-13,49.9,40.6,29.6,42.6,36.4,27.6,95,85,74,30.14,29.89,7,2,14,0.00
2014-1-14,47.9,45.1,42.5,47.1,43.4,40.5,97,94,86,29.89,29.64,6,2,10,0.55
2014-1-15,42.7,37.8,33.0,41.9,37.1,32.2,98,97,97,30.00,29.84,5,1,7,0.01
2014-1-16,40.0,38.4,32.8,39.0,34.8,26.4,98,87,77,29.94,29.82,6,3,10,0.01
2014-1-17,46.2,37.2,27.1,38.0,31.8,23.1,90,81,68,29.98,29.86,5,2,9,0.00
2014-1-18,43.8,36.2,24.2,40.8,30.8,14.4,94,81,63,29.89,29.65,12,5,18,0.01
2014-1-19,41.3,31.4,22.1,26.6,20.4,14.1,73,64,51,29.86,29.67,9,3,14,0.00
2014-1-20,49.9,40.1,33.1,31.5,29.0,25.6,76,65,47,29.87,29.57,11,4,16,0.00
2014-1-21,36.0,24.0,13.7,29.4,18.3,11.3,92,80,60,29.94,29.76,17,11,24,0.00
2014-1-22,17.0,12.4,7.7,11.5,2.7,-1.6,90,66,45,29.99,29.72,15,10,23,0.00
2014-1-23,20.9,13.6,7.3,7.6,3.2,-2.1,76,63,53,30.30,29.99,10,5,14,0.00
2014-1-24,19.0,13.7,8.1,8.8,3.5,-0.5,85,65,46,30.40,30.11,12,4,15,0.00
2014-1-25,30.9,24.6,17.7,23.9,15.0,7.3,90,68,48,30.11,29.46,8,4,16,0.00
2014-1-26,33.3,24.3,17.2,28.2,11.5,1.1,82,59,42,29.92,29.49,11,4,24,0.00
2014-1-27,47.1,35.6,22.4,33.8,23.8,2.2,87,64,38,30.07,29.61,14,5,18,0.00
2014-1-28,22.3,16.6,13.2,9.3,1.6,-2.4,84,52,42,30.37,30.07,10,5,14,0.00
2014-1-29,21.1,15.5,11.3,10.5,4.8,-1.0,89,65,39,30.31,30.12,9,4,12,0.00
2014-1-30,28.0,18.3,9.5,16.2,8.0,0.8,84,65,42,30.47,30.19,6,2,8,0.00
2014-1-31,43.3,30.4,18.6,28.8,20.6,11.7,86,68,37,30.23,30.09,9,2,11,0.00
2014-2-1,41.2,35.0,29.0,35.1,29.7,23.3,94,81,62,30.32,30.00,5,1,8,0.00
2014-2-2,56.3,42.9,32.8,40.8,36.9,31.3,96,81,49,30.06,29.91,6,1,7,0.01
2014-2-3,43.7,34.3,30.8,36.6,32.3,28.2,97,92,75,30.29,30.01,12,7,18,0.45
2014-2-4,35.1,30.1,23.9,31.6,26.3,20.9,91,86,81,30.45,30.21,7,4,10,0.00
2014-2-5,36.9,34.7,32.4,36.1,33.6,28.8,97,96,83,30.21,29.61,16,8,22,0.66
2014-2-6,33.8,26.9,23.2,28.0,19.5,16.1,80,73,60,30.27,29.94,15,6,17,0.00
2014-2-7,34.1,28.3,23.7,20.7,18.4,15.7,79,67,54,30.34,30.21,8,3,11,0.00
2014-2-8,30.0,25.6,22.5,18.8,12.8,6.2,78,59,41,30.34,30.14,5,3,7,0.00
2014-2-9,30.1,25.5,20.9,25.2,17.7,12.4,93,73,56,30.17,29.99,7,3,9,0.00
2014-2-10,28.1,24.2,19.8,23.2,15.1,9.8,93,69,52,30.27,30.00,12,5,15,0.00
2014-2-11,24.9,19.9,13.7,10.8,8.5,6.3,77,61,48,30.45,30.27,11,5,14,0.00
2014-2-12,33.9,21.4,12.8,29.5,14.9,6.7,93,76,65,30.54,30.23,11,6,13,0.00
2014-2-13,35.8,33.4,27.6,34.8,32.5,25.8,98,97,93,30.23,29.01,25,15,33,0.53
2014-2-14,43.1,35.3,29.3,32.2,29.0,25.1,98,79,53,29.77,29.01,13,7,23,0.03
2014-2-15,38.1,33.3,27.7,35.1,30.1,19.6,95,88,70,29.78,29.50,14,7,20,0.13
2014-2-16,28.8,25.1,20.6,19.6,14.8,12.1,74,65,55,30.09,29.74,11,6,15,0.00
2014-2-17,33.2,24.0,17.7,19.1,10.8,5.7,78,58,35,30.38,30.10,10,5,16,0.00
2014-2-18,46.6,36.7,26.3,39.7,30.6,17.6,95,79,58,30.31,29.94,11,4,22,0.24
2014-2-19,45.8,39.2,28.5,43.7,37.1,26.5,96,92,84,30.09,29.69,6,2,13,0.27
2014-2-20,47.0,40.1,34.0,38.7,33.9,29.1,93,79,55,30.25,29.99,8,3,9,0.00
2014-2-21,56.7,44.1,36.8,55.9,42.7,35.5,98,95,86,29.99,29.65,13,3,19,0.15
2014-2-22,59.7,46.3,35.0,37.0,30.6,20.3,96,59,22,30.07,29.92,8,2,13,0.00
2014-2-23,54.6,43.9,37.2,39.4,34.4,30.6,84,70,47,30.02,29.84,8,2,9,0.00
2014-2-24,42.0,35.7,28.4,35.6,22.9,11.9,96,63,39,30.08,29.82,14,7,20,0.03
2014-2-25,32.8,28.7,23.8,21.8,16.8,12.3,69,61,52,30.09,29.93,9,3,14,0.00
2014-2-26,31.9,26.9,20.3,26.1,14.0,3.1,89,59,37,29.97,29.80,13,4,16,0.00
2014-2-27,33.6,25.0,16.3,25.9,10.4,-7.0,88,55,34,30.09,29.60,15,6,20,0.00
2014-2-28,23.6,16.5,9.6,10.5,-0.3,-12.3,71,48,30,30.42,30.09,14,5,23,0.00
2014-3-1,35.8,28.4,16.5,30.8,21.6,9.2,85,76,58,30.41,30.15,8,2,10,0.00
2014-3-2,40.3,35.5,30.5,33.3,29.9,24.2,92,80,62,30.15,29.96,6,1,7,0.04
2014-3-3,33.8,22.3,16.5,30.6,13.8,4.7,91,71,51,30.30,29.96,13,7,14,0.00
2014-3-4,27.2,20.2,12.8,20.2,11.0,2.9,81,67,58,30.40,30.24,8,4,13,0.00
2014-3-5,34.8,29.1,20.9,23.9,18.2,12.3,86,65,45,30.39,30.19,13,5,19,0.00
2014-3-6,31.0,25.4,21.3,23.7,16.5,11.5,75,69,55,30.61,30.39,13,9,19,0.00
2014-3-7,35.4,33.4,31.1,31.6,29.1,23.4,94,84,71,30.43,29.87,15,10,19,0.00
2014-3-8,56.6,45.1,32.7,37.7,34.4,30.1,93,68,40,29.89,29.76,13,5,16,0.00
2014-3-9,46.7,40.8,38.0,35.9,26.2,18.0,84,57,35,30.00,29.86,12,6,16,0.03
2014-3-10,52.8,42.0,35.5,37.8,28.8,20.6,81,60,46,29.96,29.61,8,2,9,0.00
2014-3-11,66.4,51.4,39.5,42.0,37.1,33.4,87,60,33,29.68,29.56,6,2,11,0.00
2014-3-12,53.3,47.4,38.7,52.1,43.8,35.7,97,88,77,29.67,29.01,18,3,24,0.24
2014-3-13,37.8,25.3,19.3,34.8,8.9,1.9,89,51,31,30.08,29.15,19,14,28,0.00
2014-3-14,42.3,32.6,20.5,32.7,17.5,-0.2,74,54,33,30.23,29.91,10,4,18,0.00
2014-3-15,60.1,51.5,41.7,36.6,31.7,24.8,75,48,30,29.99,29.76,12,6,19,0.00
2014-3-16,46.5,37.1,32.8,27.6,16.6,9.7,61,43,32,30.18,29.98,10,6,15,0.00
2014-3-17,32.1,27.7,23.9,23.6,17.9,13.4,91,68,50,30.11,30.01,15,10,22,0.00
2014-3-18,36.3,34.2,31.9,30.6,24.3,15.4,81,67,48,30.26,30.09,13,10,21,0.00
2014-3-19,48.5,40.0,36.2,47.4,36.3,29.7,96,87,77,30.27,29.80,14,8,18,0.32
2014-3-20,53.8,47.5,41.4,47.4,35.8,25.1,97,67,38,29.92,29.72,13,7,20,0.01
2014-3-21,51.4,42.9,34.7,30.3,26.2,23.3,77,53,35,30.04,29.91,10,4,16,0.00
2014-3-22,65.4,51.2,34.3,42.3,35.6,27.3,88,59,31,30.03,29.74,9,4,14,0.00
2014-3-23,47.2,40.0,30.5,32.5,23.9,11.1,68,53,37,30.09,29.94,12,6,17,0.00
2014-3-24,33.9,27.5,21.0,14.4,9.1,6.3,57,46,35,30.25,30.09,13,6,16,0.00
2014-3-25,38.0,29.8,21.1,29.2,19.8,8.2,94,68,45,30.15,29.82,13,5,17,0.00
2014-3-26,35.1,30.9,26.2,27.8,17.3,7.7,95,60,35,30.22,29.71,19,11,28,0.00
2014-3-27,39.1,31.0,22.1,28.9,16.4,7.6,74,55,33,30.42,30.23,11,6,14,0.00
2014-3-28,58.3,48.2,36.4,49.6,42.1,28.9,89,79,72,30.27,29.97,7,3,16,0.00
2014-3-29,50.4,44.9,41.3,49.0,43.0,40.2,98,93,81,30.15,29.59,12,6,15,1.70
2014-3-30,52.3,45.8,40.1,51.8,45.1,39.1,98,98,96,29.61,29.41,14,8,21,0.23
2014-3-31,53.9,43.3,34.3,39.6,36.8,33.2,97,80,52,30.06,29.61,13,8,20,0.21
2014-4-1,46.9,41.4,35.5,37.5,33.3,29.6,86,73,59,30.12,29.99,10,4,14,0.00
2014-4-2,48.2,43.4,40.6,43.6,40.4,36.7,94,89,83,30.13,30.03,5,2,7,0.00
2014-4-3,50.2,45.9,41.1,42.8,39.2,34.3,95,78,58,30.11,29.98,8,3,11,0.06
2014-4-4,43.1,42.1,41.1,41.8,40.0,38.6,96,92,85,30.06,29.69,13,8,16,0.14
2014-4-5,53.7,46.9,41.3,44.0,37.0,29.8,97,71,47,30.07,29.68,15,7,21,0.00
2014-4-6,48.9,41.3,34.2,37.0,30.2,20.4,85,65,34,30.22,30.07,10,4,13,0.00
2014-4-7,45.9,41.5,34.1,44.9,39.2,31.9,97,91,84,30.20,29.66,14,4,17,0.59
2014-4-8,64.9,55.4,44.9,59.3,47.9,37.5,98,79,45,29.66,29.41,11,4,15,0.26
2014-4-9,61.1,52.2,41.7,39.1,34.9,26.9,83,54,28,30.01,29.61,14,6,24,0.00
2014-4-10,55.5,48.0,34.9,44.4,35.5,27.0,83,63,42,30.23,30.01,10,4,14,0.00
2014-4-11,70.9,58.8,53.2,53.0,47.5,38.2,83,67,39,30.03,29.91,8,3,10,0.00
2014-4-12,59.9,55.8,52.1,52.4,48.7,44.8,88,77,60,30.22,29.99,7,3,12,0.00
2014-4-13,70.4,58.1,46.5,57.7,52.1,44.9,95,81,62,30.19,30.00,8,4,17,0.00
2014-4-14,68.9,61.8,55.8,61.0,56.2,52.3,94,82,69,30.03,29.85,10,6,17,0.00
2014-4-15,62.1,55.1,36.1,61.5,53.8,34.0,98,96,90,29.90,29.54,17,9,22,0.66
2014-4-16,47.7,38.9,31.4,34.4,26.6,21.6,94,64,37,30.54,29.89,14,9,18,0.12
2014-4-17,41.5,40.6,39.7,34.7,32.1,26.9,80,72,56,30.71,30.53,13,11,18,0.00
2014-4-18,40.9,39.4,38.0,36.8,33.8,31.9,87,80,74,30.58,30.26,11,6,17,0.00
2014-4-19,59.4,47.6,37.2,42.1,38.2,34.2,92,72,39,30.31,30.20,13,3,15,0.00
2014-4-20,52.1,46.1,42.8,42.4,36.9,32.9,86,71,48,30.49,30.30,13,7,14,0.00
2014-4-21,53.3,46.2,39.7,45.9,41.3,36.2,89,83,72,30.30,29.87,7,4,10,0.00
2014-4-22,67.3,55.2,44.0,55.7,49.2,41.7,92,81,66,29.87,29.50,7,2,11,0.00
2014-4-23,59.5,53.6,44.9,49.9,39.5,31.4,75,59,47,29.83,29.49,20,11,29,0.00
2014-4-24,60.9,50.5,40.9,32.6,24.5,17.7,66,39,20,30.00,29.83,17,8,27,0.00
2014-4-25,51.3,48.4,40.7,45.3,33.3,22.3,89,58,33,30.04,29.74,9,5,13,0.04
2014-4-26,62.9,51.2,46.7,48.3,46.5,44.8,96,85,53,29.86,29.64,13,6,14,0.97
2014-4-27,58.5,51.3,43.6,45.0,39.5,36.0,95,66,45,30.09,29.86,12,6,17,0.00
2014-4-28,56.2,50.6,42.3,46.2,39.9,36.0,86,67,48,30.10,30.02,8,4,10,0.00
2014-4-29,49.7,45.7,43.0,46.1,41.9,40.2,95,86,80,30.36,30.10,23,15,31,0.00
2014-4-30,54.6,46.9,43.1,54.0,45.9,41.8,98,96,94,30.34,29.93,20,14,27,2.25
2014-5-1,69.8,59.2,54.5,64.2,57.9,53.9,99,96,73,29.94,29.67,8,3,11,0.36
2014-5-2,67.9,61.5,55.3,59.0,45.8,38.9,95,59,37,29.84,29.68,9,3,12,0.01
2014-5-3,64.6,57.1,48.0,52.5,46.3,41.5,88,68,45,29.88,29.73,9,2,10,0.00
2014-5-4,63.9,57.2,50.6,51.1,42.9,34.1,91,62,36,29.80,29.65,17,5,24,0.00
2014-5-5,66.5,58.1,49.0,40.2,35.3,27.7,63,44,26,29.89,29.78,13,7,17,0.00
2014-5-6,60.3,54.4,48.7,48.2,40.5,30.2,90,60,38,30.04,29.84,9,4,11,0.00
2014-5-7,56.5,52.6,45.9,48.9,40.8,33.3,88,66,42,30.23,30.04,9,3,12,0.03
2014-5-8,57.7,52.8,49.9,56.4,51.6,48.0,98,96,86,30.18,30.06,9,4,12,0.72
2014-5-9,57.9,54.0,52.1,57.6,53.5,51.6,99,98,98,30.16,29.97,9,3,12,0.00
2014-5-10,82.9,66.8,53.3,68.4,61.2,53.0,100,84,47,29.98,29.83,12,2,14,0.01
2014-5-11,79.6,69.6,61.7,63.0,54.4,45.8,95,62,37,30.07,29.87,8,3,10,0.10
2014-5-12,79.5,68.4,59.0,65.9,58.9,51.0,95,72,58,30.11,30.00,8,2,14,0.14
2014-5-13,67.0,58.1,51.4,65.0,53.6,46.9,97,85,72,30.26,29.99,13,7,17,0.00
2014-5-14,54.0,51.8,50.5,53.4,50.0,47.7,98,94,87,30.29,30.20,9,6,12,0.00
2014-5-15,65.0,60.2,54.1,64.7,59.6,53.5,99,98,95,30.21,30.06,9,4,12,0.02
2014-5-16,63.8,60.8,59.0,63.5,60.1,58.4,99,98,96,30.05,29.80,14,7,20,1.22
2014-5-17,67.0,59.0,53.2,59.7,53.0,43.5,99,82,44,30.09,29.82,9,3,12,0.01
2014-5-18,64.1,56.6,48.6,48.6,44.6,40.1,84,65,44,30.17,30.08,8,4,10,0.00
2014-5-19,71.4,58.8,47.8,52.2,42.0,37.3,76,56,30,30.21,30.05,12,5,15,0.01
2014-5-20,74.5,64.5,52.5,54.1,47.0,40.2,78,55,30,30.12,29.96,9,4,10,0.00
2014-5-21,73.3,66.9,61.9,58.4,54.8,51.6,83,66,54,29.99,29.88,8,2,10,0.00
2014-5-22,65.8,60.3,57.9,62.4,58.1,55.6,98,92,82,29.88,29.76,7,2,11,0.43
2014-5-23,61.3,59.1,57.2,59.6,58.0,56.6,98,96,92,29.92,29.80,7,3,9,0.76
2014-5-24,62.4,58.2,53.5,58.1,55.3,51.9,96,90,83,30.08,29.89,8,4,10,0.10
2014-5-25,74.3,64.3,53.2,61.3,56.7,51.9,98,78,53,30.09,30.00,9,3,10,0.00
2014-5-26,86.0,74.3,61.9,61.0,57.0,52.2,81,57,35,30.06,29.88,7,2,9,0.00
2014-5-27,87.3,76.8,67.7,67.5,62.1,57.5,82,61,44,29.90,29.75,8,2,10,0.00
2014-5-28,70.0,58.3,54.2,65.4,55.3,49.5,96,90,82,30.14,29.77,13,8,18,0.11
2014-5-29,55.3,53.7,52.4,50.6,48.4,46.7,86,82,77,30.22,30.13,12,6,17,0.00
2014-5-30,68.8,60.7,54.2,60.5,54.0,49.7,90,79,62,30.14,29.96,8,3,9,0.00
2014-5-31,67.8,60.7,56.2,58.0,52.8,47.5,92,76,50,30.27,30.03,14,6,16,0.00
2014-6-1,67.8,61.0,51.2,52.4,48.2,43.1,87,65,43,30.34,30.25,10,4,10,0.00
2014-6-2,76.0,66.0,52.4,60.9,52.6,44.3,81,63,40,30.26,30.01,9,2,11,0.00
2014-6-3,78.3,69.3,60.3,69.3,61.2,52.9,90,76,65,30.03,29.80,9,2,11,0.00
2014-6-4,72.2,67.4,63.6,65.9,63.5,60.9,96,87,78,29.83,29.72,10,3,12,0.00
2014-6-5,74.6,65.9,61.7,65.3,61.7,55.4,97,87,66,29.77,29.57,12,5,16,0.68
2014-6-6,73.5,65.9,58.6,62.5,56.2,52.5,92,72,52,29.92,29.76,10,4,13,0.00
2014-6-7,76.5,67.8,59.6,62.0,56.8,53.5,81,69,46,29.99,29.91,8,3,9,0.00
2014-6-8,79.6,70.6,61.4,67.4,62.2,57.1,90,75,59,29.94,29.85,8,2,10,0.00
2014-6-9,69.7,67.0,65.1,67.7,64.9,61.0,97,93,77,29.92,29.87,7,2,9,0.97
2014-6-10,73.9,69.0,66.5,70.1,67.1,65.5,98,94,86,29.94,29.88,8,3,10,0.00
2014-6-11,67.3,62.4,60.4,66.7,60.8,58.3,98,95,88,30.10,29.94,11,7,16,0.01
2014-6-12,67.7,63.8,60.1,65.9,63.0,59.5,98,97,93,30.06,29.89,10,6,12,0.01
2014-6-13,76.0,69.0,65.0,72.3,67.8,64.4,99,96,86,29.89,29.69,8,3,12,0.13
2014-6-14,76.1,69.8,61.1,68.4,61.4,50.9,98,76,54,30.02,29.75,12,6,19,0.00
2014-6-15,75.9,66.5,56.3,66.1,57.9,51.5,89,75,55,30.09,30.02,11,4,16,0.00
2014-6-16,73.8,68.2,60.3,65.8,61.2,57.2,90,79,64,30.14,30.05,8,3,11,0.00
2014-6-17,84.5,76.6,70.1,75.8,70.4,65.4,90,81,69,30.06,29.88,8,2,10,0.00
2014-6-18,90.6,82.1,75.3,71.8,69.3,65.4,84,67,46,29.93,29.81,10,3,17,0.00
2014-6-19,75.3,71.0,66.2,69.9,67.3,64.5,95,88,77,29.99,29.88,10,2,12,0.21
2014-6-20,76.0,69.4,62.5,64.6,58.2,50.1,96,69,48,29.98,29.87,12,4,15,0.00
2014-6-21,69.1,66.8,65.4,63.3,59.0,55.0,91,76,64,29.95,29.87,10,6,13,0.00
2014-6-22,70.7,67.0,62.1,64.4,61.8,59.6,95,84,69,30.01,29.88,7,3,9,0.00
2014-6-23,75.2,69.2,60.3,67.8,62.8,56.9,95,81,53,30.14,30.00,9,3,13,0.00
2014-6-24,75.5,70.7,63.4,68.4,65.0,60.3,92,82,74,30.14,30.02,9,3,15,0.00
2014-6-25,78.7,73.9,69.1,73.8,70.8,65.6,95,90,84,30.02,29.82,9,3,14,0.00
2014-6-26,85.6,76.8,69.0,73.0,70.1,67.7,97,81,60,29.92,29.78,9,3,12,0.23
2014-6-27,74.8,69.8,66.9,68.9,63.4,58.4,94,81,58,30.19,29.92,10,5,13,0.00
2014-6-28,77.4,70.2,61.6,64.4,61.1,55.7,93,74,48,30.25,30.19,8,3,12,0.00
2014-6-29,75.5,70.0,60.5,67.0,62.9,58.1,94,79,57,30.24,30.10,8,3,11,0.00
2014-6-30,78.7,72.8,66.5,71.0,68.2,64.5,96,86,71,30.12,29.93,9,3,13,0.00
2014-7-1,85.1,77.2,71.5,75.1,71.4,68.4,94,83,70,29.96,29.82,9,3,13,0.00
2014-7-2,82.2,76.6,69.9,75.0,71.8,66.7,95,85,76,29.96,29.81,11,3,14,0.08
2014-7-3,84.4,76.3,70.1,77.7,72.5,67.3,97,88,71,29.98,29.85,8,3,14,0.06
2014-7-4,73.2,69.9,66.3,70.8,65.0,54.8,95,85,59,30.01,29.84,15,6,21,0.56
2014-7-5,82.0,71.2,61.4,57.5,54.7,52.6,75,57,38,30.15,30.01,10,5,17,0.00
2014-7-6,84.1,73.8,62.8,67.1,61.2,55.3,83,66,41,30.10,29.93,8,2,13,0.00
2014-7-7,90.8,79.4,70.5,72.7,68.2,62.9,83,70,46,29.94,29.74,6,3,11,0.00
2014-7-8,91.1,79.1,66.8,74.5,70.7,64.1,92,76,54,29.83,29.68,8,3,14,0.11
2014-7-9,83.3,75.7,70.1,74.7,70.0,66.5,92,83,60,29.93,29.77,7,2,11,0.04
2014-7-10,74.1,71.4,68.5,72.3,67.3,64.1,96,87,73,30.11,29.93,9,3,11,0.00
2014-7-11,77.2,71.4,66.5,68.7,66.3,61.4,96,85,65,30.20,30.09,9,4,13,0.00
2014-7-12,76.6,71.4,66.3,70.9,68.4,65.1,97,90,76,30.21,30.11,9,3,12,0.00
2014-7-13,77.7,74.2,70.5,73.7,70.7,68.4,94,89,81,30.11,29.90,8,3,13,0.00
2014-7-14,80.8,73.4,68.1,75.8,70.2,66.4,97,89,82,29.92,29.78,7,2,9,0.53
2014-7-15,82.9,72.1,66.7,78.9,70.4,65.8,98,94,79,29.82,29.70,7,2,11,2.09
2014-7-16,77.0,71.9,67.4,70.8,66.8,59.5,98,85,56,29.86,29.73,9,2,9,0.37
2014-7-17,76.6,70.9,64.5,67.5,61.7,55.6,88,73,54,30.08,29.85,7,3,10,0.00
2014-7-18,76.0,70.0,63.3,62.2,59.3,55.6,85,70,52,30.20,30.08,7,3,11,0.00
2014-7-19,73.3,69.9,65.1,67.9,64.0,58.7,87,82,71,30.22,30.14,7,3,9,0.00
2014-7-20,71.0,69.5,66.4,67.0,65.4,62.4,93,87,80,30.14,30.07,10,6,13,0.01
2014-7-21,74.5,69.8,62.7,68.7,65.4,61.2,96,86,77,30.18,30.10,7,3,9,0.00
2014-7-22,81.0,74.4,65.7,71.0,66.2,61.1,87,76,67,30.17,30.03,8,2,12,0.00
2014-7-23,83.1,77.1,69.5,75.7,71.7,67.4,93,83,74,30.03,29.77,7,3,12,0.00
2014-7-24,77.8,74.1,71.1,71.0,67.4,62.0,90,80,65,29.87,29.76,8,4,11,0.00
2014-7-25,76.1,71.6,64.3,67.0,62.3,57.8,86,73,63,30.00,29.86,9,5,12,0.00
2014-7-26,80.2,73.4,66.2,70.8,67.0,63.5,92,81,66,30.00,29.88,5,1,11,0.00
2014-7-27,85.0,76.7,71.1,75.4,72.2,68.8,95,86,69,29.89,29.64,7,2,11,0.10
2014-7-28,83.7,75.3,67.8,73.4,67.2,61.9,97,78,52,29.68,29.51,9,3,13,0.50
2014-7-29,75.9,69.0,61.8,62.2,58.2,54.7,87,69,51,29.95,29.67,10,4,11,0.00
2014-7-30,75.9,69.8,62.5,63.3,59.2,54.1,83,70,52,30.02,29.93,8,3,11,0.00
2014-7-31,81.3,72.5,62.5,70.0,64.1,58.3,89,76,51,30.12,30.03,8,2,13,0.00
2014-8-1,80.8,73.8,71.1,71.9,69.9,68.0,93,88,73,30.19,30.12,8,2,9,0.08
2014-8-2,71.2,68.1,65.2,68.8,65.8,63.7,97,93,86,30.16,30.07,13,6,16,1.64
2014-8-3,71.3,69.3,66.3,68.5,66.1,64.7,95,89,84,30.10,30.00,8,4,11,0.14
2014-8-4,78.7,72.8,66.9,73.0,69.8,65.7,97,91,79,30.06,30.00,10,3,13,0.00
2014-8-5,81.8,75.1,67.7,72.8,69.5,66.3,96,83,66,30.03,29.87,7,2,9,0.00
2014-8-6,81.1,73.9,67.6,69.6,66.8,63.2,91,79,61,29.88,29.82,7,3,9,0.00
2014-8-7,81.6,73.1,63.5,66.8,60.4,54.7,91,66,46,29.99,29.87,8,4,10,0.00
2014-8-8,77.7,70.5,61.8,66.5,59.9,55.0,89,70,47,30.08,29.99,9,3,13,0.00
2014-8-9,80.7,72.4,64.5,67.5,61.8,58.4,84,70,47,30.10,30.04,8,3,9,0.00
2014-8-10,79.9,73.5,65.9,70.2,64.4,59.8,87,74,57,30.12,30.06,7,2,8,0.00
2014-8-11,78.2,73.3,66.0,69.8,66.8,63.3,92,80,63,30.13,30.05,7,4,11,0.00
2014-8-12,77.4,74.2,69.7,73.1,70.0,66.3,97,87,80,30.06,29.82,18,10,23,0.50
2014-8-13,83.3,74.2,68.2,72.0,68.8,63.3,99,85,61,29.82,29.63,23,5,25,4.66
2014-8-14,78.9,69.9,62.0,63.8,58.3,53.0,93,68,47,29.88,29.76,8,3,11,0.15
2014-8-15,75.1,66.2,58.5,61.9,57.0,53.6,95,74,50,29.97,29.86,8,2,11,0.00
2014-8-16,76.9,68.9,58.2,66.4,60.0,53.9,89,74,53,30.01,29.89,10,2,15,0.00
2014-8-17,81.0,71.6,64.2,69.2,63.9,58.7,92,78,62,29.90,29.79,6,2,14,0.00
2014-8-18,76.6,69.3,58.9,66.4,61.1,55.8,91,76,59,29.90,29.80,8,3,12,0.00
2014-8-19,77.0,71.2,63.0,70.0,66.1,61.4,96,84,69,29.91,29.82,8,3,9,0.00
2014-8-20,75.6,71.7,66.0,67.8,65.6,63.2,94,81,68,30.00,29.91,7,3,9,0.00
2014-8-21,75.7,72.3,67.0,69.1,66.2,63.5,92,81,68,30.05,29.98,9,4,13,0.00
2014-8-22,73.0,71.2,67.7,68.5,65.9,61.2,94,83,67,30.02,29.95,10,6,13,0.96
2014-8-23,71.1,70.2,69.7,66.0,64.1,61.2,85,81,73,30.08,29.99,11,8,16,0.00
2014-8-24,71.9,69.4,63.2,63.9,62.3,60.7,93,78,71,30.13,30.07,8,5,12,0.00
2014-8-25,83.0,71.7,61.3,66.3,62.1,58.4,93,74,49,30.15,30.08,8,2,10,0.00
2014-8-26,77.3,72.0,65.3,70.8,66.6,63.2,95,83,71,30.15,30.06,8,2,10,0.00
2014-8-27,85.2,75.2,64.3,71.2,67.3,62.3,95,78,55,30.06,29.83,7,2,10,0.00
2014-8-28,78.9,74.1,66.8,70.9,61.1,53.8,87,65,46,30.03,29.80,11,6,14,0.00
2014-8-29,72.0,66.7,58.3,59.4,56.2,51.8,83,69,59,30.22,30.03,9,5,11,0.00
2014-8-30,75.9,70.5,59.6,69.4,64.0,56.8,92,80,70,30.24,30.13,9,3,12,0.00
2014-8-31,88.9,78.3,72.6,77.5,73.2,68.0,97,85,67,30.14,29.94,8,2,15,0.33
2014-9-1,83.2,75.9,71.7,76.8,73.9,70.8,98,94,81,30.00,29.91,7,1,8,0.34
2014-9-2,92.0,81.9,73.3,77.5,74.2,69.0,98,79,58,29.93,29.79,5,1,10,0.00
2014-9-3,80.4,75.3,69.1,70.7,67.9,63.3,89,78,58,30.09,29.82,8,3,11,0.00
2014-9-4,80.9,73.9,64.6,72.2,67.4,62.2,94,81,64,30.17,30.09,8,2,11,0.00
2014-9-5,81.4,76.5,70.7,77.1,73.8,68.9,97,91,83,30.16,29.99,10,3,12,0.00
2014-9-6,92.9,80.2,72.2,79.7,74.0,68.3,96,82,57,30.00,29.80,14,2,14,0.02
2014-9-7,74.8,70.0,64.6,68.8,64.3,61.7,97,83,67,30.15,29.89,11,5,14,0.02
2014-9-8,73.8,70.8,66.2,65.8,62.0,58.7,92,74,60,30.29,30.15,15,9,22,0.00
2014-9-9,71.1,70.0,68.8,66.5,63.8,60.6,90,81,71,30.22,30.10,14,11,19,0.01
2014-9-10,70.4,68.0,66.0,65.1,63.4,61.4,89,85,78,30.10,30.00,11,6,14,0.00
2014-9-11,84.5,75.3,66.2,75.0,69.6,64.1,94,83,69,30.00,29.80,7,2,11,0.00
2014-9-12,75.3,67.9,62.3,70.5,59.1,56.0,85,74,66,30.14,29.89,9,6,12,0.00
2014-9-13,69.3,67.3,61.3,66.3,62.8,58.4,97,86,72,30.14,30.04,14,8,18,0.46
2014-9-14,65.9,59.8,52.3,59.6,53.4,49.0,96,80,63,30.25,30.12,8,4,10,0.00
2014-9-15,66.4,60.4,53.3,57.0,53.4,50.3,93,79,60,30.22,30.06,9,4,12,0.00
2014-9-16,66.6,61.8,57.0,62.7,58.9,55.2,96,90,81,30.06,29.94,8,2,10,0.12
2014-9-17,67.8,61.7,54.7,56.9,53.9,49.1,93,77,54,30.04,29.95,8,4,11,0.00
2014-9-18,71.2,62.9,52.8,57.2,54.5,51.1,95,76,52,30.06,29.94,7,2,9,0.00
2014-9-19,65.6,62.0,59.8,58.4,55.3,52.1,87,79,72,30.34,30.06,12,9,18,0.00
2014-9-20,73.8,69.1,63.0,68.2,62.5,56.4,96,80,71,30.33,30.02,9,6,12,0.31
2014-9-21,71.9,69.2,66.4,70.5,68.2,65.8,98,97,92,30.02,29.59,5,2,8,0.11
2014-9-22,70.3,65.7,55.6,67.2,56.2,45.1,96,72,56,30.16,29.62,10,4,17,0.00
2014-9-23,66.4,57.4,47.9,55.2,49.1,43.1,89,74,65,30.39,30.16,7,3,8,0.00
2014-9-24,68.5,63.8,54.0,61.6,57.1,50.3,93,79,70,30.52,30.38,14,9,18,0.00
2014-9-25,66.9,63.1,60.2,63.3,60.8,56.7,97,92,70,30.41,30.17,18,12,23,0.40
2014-9-26,71.5,62.9,56.0,58.5,56.2,52.5,94,80,53,30.19,30.13,10,4,13,0.00
2014-9-27,78.2,66.7,57.2,62.0,58.7,54.6,93,77,55,30.20,30.13,10,3,14,0.00
2014-9-28,78.3,68.4,60.2,66.2,61.8,57.1,91,80,64,30.16,30.00,7,1,7,0.00
2014-9-29,77.7,68.3,62.1,67.9,63.7,60.5,95,86,61,30.01,29.88,4,0,6,0.00
2014-9-30,69.3,65.4,62.3,63.8,60.7,53.5,94,85,66,29.94,29.89,10,4,14,0.06
2014-10-1,64.6,62.7,61.3,62.0,60.8,59.7,97,93,88,30.05,29.94,10,6,13,0.34
2014-10-2,63.9,62.1,59.3,59.8,58.9,58.2,97,89,83,30.12,30.03,8,5,12,0.07
2014-10-3,64.0,62.1,60.3,59.5,56.8,53.9,91,83,76,30.10,29.83,8,5,12,0.00
2014-10-4,69.7,64.3,52.1,67.5,60.0,40.0,97,86,60,29.82,29.50,16,7,20,0.34
2014-10-5,61.0,51.3,42.7,45.4,40.6,37.0,91,68,50,29.99,29.71,9,3,16,0.00
2014-10-6,68.6,59.7,45.3,59.0,50.6,43.3,95,74,54,30.07,29.99,8,3,16,0.00
2014-10-7,73.7,67.4,64.2,63.7,60.9,55.7,90,80,54,30.05,29.90,6,4,10,0.01
2014-10-8,73.7,66.5,58.8,64.3,56.5,47.8,93,72,46,29.95,29.79,7,3,16,0.08
2014-10-9,70.8,60.0,51.3,49.4,45.8,42.1,86,62,37,30.07,29.94,6,2,9,0.00
2014-10-10,61.5,57.2,50.7,51.3,47.2,43.8,82,70,56,30.12,30.04,5,1,5,0.00
2014-10-11,61.2,56.3,51.1,56.2,52.5,48.9,96,87,66,30.15,29.99,13,6,18,0.53
2014-10-12,58.9,52.3,46.3,49.2,46.1,43.2,95,81,57,30.31,30.14,9,4,10,0.00
2014-10-13,66.3,59.6,46.4,64.1,56.1,44.5,94,89,75,30.32,30.22,5,2,10,0.00
2014-10-14,72.6,68.7,65.1,67.4,65.5,63.4,96,90,81,30.22,30.08,8,4,13,0.00
2014-10-15,72.4,69.5,67.5,68.6,67.2,65.7,96,93,87,30.08,29.81,11,6,13,0.09
2014-10-16,71.5,66.6,58.6,68.1,63.5,56.0,97,90,73,29.81,29.67,10,3,13,0.90
2014-10-17,73.1,63.5,56.9,60.3,56.8,54.8,95,80,54,29.75,29.67,4,2,8,0.00
2014-10-18,69.6,63.1,53.9,59.0,53.7,44.6,93,73,53,29.72,29.56,8,3,10,0.00
2014-10-19,54.2,50.9,42.3,46.3,39.7,32.3,82,66,45,30.06,29.72,13,6,19,0.00
2014-10-20,62.3,50.8,36.5,49.8,40.1,31.8,85,68,45,30.12,29.95,6,2,12,0.00
2014-10-21,67.6,58.0,53.2,58.5,53.2,47.5,96,84,67,29.95,29.79,11,2,11,1.24
2014-10-22,61.1,55.2,50.6,58.5,53.6,49.8,97,94,88,29.87,29.68,17,11,24,1.99
2014-10-23,53.6,52.0,50.5,50.7,49.5,47.4,97,91,84,29.76,29.64,14,9,20,0.18
2014-10-24,66.1,55.8,49.3,54.0,48.5,45.3,94,77,55,29.83,29.74,13,6,16,0.00
2014-10-25,67.5,57.4,45.4,50.3,44.9,38.6,78,64,51,29.87,29.58,7,3,11,0.00
2014-10-26,63.0,57.9,50.4,48.6,43.4,38.3,81,60,44,29.85,29.55,14,5,17,0.00
2014-10-27,63.7,52.8,45.0,47.3,41.3,38.8,80,66,44,30.03,29.84,11,3,13,0.00
2014-10-28,72.6,60.5,47.8,60.7,53.6,41.5,94,79,60,30.04,29.90,4,1,7,0.00
2014-10-29,71.4,62.2,52.6,62.7,55.0,44.0,93,78,50,29.94,29.81,11,3,14,0.00
2014-10-30,58.8,50.6,43.7,49.2,43.4,38.7,95,78,52,30.01,29.92,8,3,11,0.00
2014-10-31,55.6,49.4,42.3,51.6,43.4,37.1,90,80,69,30.00,29.80,16,7,18,0.00
2014-11-1,54.0,46.2,42.8,51.1,44.1,40.5,97,92,87,29.80,29.70,18,12,25,1.32
2014-11-2,47.8,43.9,39.8,40.8,32.1,23.9,92,64,44,30.05,29.70,18,13,26,0.02
2014-11-3,59.6,47.6,36.4,34.3,29.6,24.5,74,51,31,30.17,30.05,11,4,16,0.00
2014-11-4,69.6,57.3,50.0,50.2,39.2,30.2,84,53,24,30.17,30.02,4,2,6,0.00
2014-11-5,65.8,57.8,52.3,49.9,44.4,37.8,85,62,41,30.14,30.02,7,1,8,0.00
2014-11-6,57.8,52.3,47.6,56.2,50.2,44.1,95,92,75,30.13,29.58,10,2,13,0.55
2014-11-7,52.3,46.8,38.1,48.1,39.4,30.2,96,76,56,29.96,29.56,15,7,23,0.00
2014-11-8,49.9,41.4,31.1,36.9,31.0,26.5,84,67,49,30.04,29.92,7,2,10,0.00
2014-11-9,57.0,48.6,42.7,42.8,40.1,35.9,90,73,52,30.01,29.88,5,1,8,0.00
2014-11-10,57.7,46.9,36.3,44.8,39.8,34.2,94,78,51,30.17,30.01,6,1,10,0.00
2014-11-11,61.9,53.1,43.0,58.2,51.4,41.7,97,94,87,30.12,29.88,8,1,10,0.00
2014-11-12,66.7,58.1,48.6,60.2,53.8,38.5,98,86,66,30.05,29.84,8,2,11,0.01
2014-11-13,48.4,42.7,34.1,39.0,35.0,31.1,95,75,62,30.11,29.96,7,4,9,0.08
2014-11-14,42.0,36.3,31.6,34.7,27.3,21.3,96,72,45,30.19,29.93,13,6,17,0.07
2014-11-15,41.4,34.1,29.1,26.8,24.3,21.1,85,68,46,30.36,30.19,10,3,15,0.00
2014-11-16,44.7,38.2,29.2,38.4,29.8,21.8,90,72,56,30.38,30.09,2,0,6,0.04
2014-11-17,58.5,47.7,40.1,57.9,46.2,36.8,98,94,77,30.10,29.48,11,4,18,1.49
2014-11-18,43.6,30.9,24.0,36.9,15.2,7.4,77,52,39,30.14,29.61,13,8,21,0.00
2014-11-19,33.9,27.6,21.5,22.7,12.3,7.6,65,53,36,30.29,30.06,11,4,15,0.00
2014-11-20,48.9,39.9,30.8,30.2,24.1,11.2,65,53,39,30.05,29.84,14,4,18,0.00
2014-11-21,36.1,30.6,27.2,16.8,14.5,12.7,63,51,40,30.51,30.04,14,6,22,0.00
2014-11-22,46.3,35.4,22.3,26.9,19.9,14.2,73,54,35,30.51,30.20,5,2,10,0.00
2014-11-23,57.3,48.2,39.9,52.0,34.3,25.2,95,61,38,30.22,29.95,5,2,8,0.00
2014-11-24,66.6,60.1,54.1,61.3,57.8,51.5,98,92,82,29.95,29.59,13,5,17,0.36
2014-11-25,64.1,53.9,47.1,59.1,43.1,33.8,97,69,46,30.16,29.71,10,2,15,0.00
2014-11-26,49.0,41.4,34.8,40.3,37.0,33.8,97,85,59,30.17,29.69,16,10,24,0.66
2014-11-27,38.6,35.6,31.9,35.4,32.4,26.1,96,88,76,30.06,29.83,8,4,10,0.00
2014-11-28,36.8,32.0,26.3,28.4,23.4,17.1,89,71,54,30.27,30.05,12,5,18,0.00
2014-11-29,42.2,32.8,24.9,36.3,23.0,16.4,82,68,50,30.35,30.21,5,1,6,0.00
2014-11-30,57.2,48.9,40.8,47.0,41.1,35.7,86,75,55,30.21,30.05,5,2,11,0.00
2014-12-1,68.7,54.9,41.2,54.0,46.8,36.5,88,75,58,30.42,30.06,16,4,17,0.10
2014-12-2,51.2,44.1,37.2,50.4,39.2,28.8,97,83,63,30.59,30.23,17,11,22,0.48
2014-12-3,51.2,46.9,40.2,50.4,44.5,31.5,97,92,71,30.22,29.97,8,3,11,0.10
2014-12-4,44.0,38.5,30.5,32.8,29.4,27.6,89,70,55,30.48,30.22,7,2,10,0.00
2014-12-5,52.0,46.1,41.5,49.5,41.4,32.6,94,84,68,30.53,30.32,13,8,17,0.12
2014-12-6,51.5,47.4,41.8,50.4,46.0,39.9,97,95,91,30.32,30.05,14,3,17,1.29
2014-12-7,42.5,38.9,33.7,39.8,27.9,19.0,93,66,44,30.56,30.15,18,13,25,0.11
2014-12-8,40.5,34.0,30.9,38.4,30.1,18.9,96,86,55,30.61,30.27,18,13,22,0.00
2014-12-9,44.5,42.1,40.1,43.7,40.3,37.8,98,94,86,30.27,29.60,23,13,31,2.07
2014-12-10,41.7,38.4,32.3,37.9,32.3,27.1,87,79,68,29.67,29.59,15,9,20,0.00
2014-12-11,36.0,32.7,31.0,32.1,29.2,25.4,95,87,72,29.88,29.63,9,3,16,0.04
2014-12-12,38.4,35.0,32.2,30.0,28.0,26.2,91,76,65,29.99,29.88,11,6,14,0.01
2014-12-13,43.4,38.2,33.3,32.2,29.7,26.7,80,72,58,29.98,29.89,13,6,21,0.00
2014-12-14,46.1,39.3,33.9,36.1,33.0,30.2,88,78,67,29.97,29.84,10,4,14,0.00
2014-12-15,45.5,37.8,31.2,36.9,33.5,29.1,95,85,68,30.11,29.97,6,2,9,0.00
2014-12-16,48.7,41.3,31.8,47.9,39.6,30.4,97,93,84,30.10,29.81,7,1,8,0.38
2014-12-17,52.4,46.8,38.2,47.6,40.5,28.8,97,79,62,29.92,29.78,10,5,16,0.00
2014-12-18,41.0,37.1,33.9,28.9,27.3,25.0,77,68,57,30.02,29.89,14,6,19,0.00
2014-12-19,38.4,35.3,30.0,29.6,27.3,23.7,83,73,60,30.18,29.95,10,5,14,0.00
2014-12-20,33.1,32.0,29.7,26.1,25.0,23.6,80,75,72,30.28,30.17,6,3,9,0.00
2014-12-21,36.1,33.7,30.6,30.7,27.4,24.4,82,78,75,30.32,30.25,7,4,9,0.00
2014-12-22,47.5,40.7,35.7,46.1,37.9,30.7,95,90,82,30.31,30.08,6,4,8,0.02
2014-12-23,48.1,47.0,45.5,47.2,46.1,44.9,98,97,95,30.10,30.01,11,8,16,0.27
2014-12-24,57.8,50.9,44.9,57.8,50.6,44.4,100,99,98,30.04,29.53,7,4,10,1.11
2014-12-25,59.4,49.6,41.1,59.4,41.4,33.5,100,75,51,30.14,29.51,16,6,20,0.15
2014-12-26,49.9,40.9,34.7,35.0,32.9,30.7,86,73,54,30.27,30.14,8,2,9,0.00
2014-12-27,56.1,44.2,36.5,42.4,37.0,32.4,89,77,51,30.26,30.07,5,2,6,0.00
2014-12-28,54.1,47.7,41.3,46.0,42.6,36.7,92,83,69,30.07,29.87,6,1,9,0.01
2014-12-29,46.2,39.9,35.1,37.0,27.7,21.7,78,62,45,30.23,30.04,7,4,11,0.00
2014-12-30,36.6,32.3,25.9,26.2,21.0,17.2,80,63,53,30.39,30.23,10,4,13,0.00
2014-12-31,32.0,26.7,22.0,19.9,15.2,11.6,84,63,44,30.38,30.19,11,3,15,0.00
2015-1-1,36.9,28.2,23.5,23.6,16.5,13.6,69,62,41,30.20,30.02,7,2,10,0.00
2015-1-2,42.4,34.9,28.4,26.2,23.5,21.5,84,64,48,30.44,30.04,9,2,12,0.00